Time;durP1;ratioP1;P1;durP2;ratioP2;P2;SDS_P1;SDS_P2;PMS_P1;PMS_P2;Temp;Humidity;BMP_temperature;BMP_pressure;BME280_temperature;BME280_humidity;BME280_pressure;Samples;Min_cycle;Max_cycle;Signal;HPM_P1;HPM_P2
2022/08/16 00:00:33;;;;;;;25.98;20.55;;;;;;;32.22;37.64;100623.09;5061364;28;20025;-79
2022/08/16 00:02:59;;;;;;;28.20;21.42;;;;;;;32.44;37.04;100618.97;5068283;28;20032;-78
2022/08/16 00:05:26;;;;;;;28.17;22.13;;;;;;;31.94;38.19;100629.53;5083374;28;20020;-79
2022/08/16 00:07:52;;;;;;;27.63;22.02;;;;;;;32.09;37.80;100629.75;5064116;28;20039;-78
2022/08/16 00:10:19;;;;;;;27.40;21.80;;;;;;;31.46;38.86;100636.25;5060273;28;20390;-78
2022/08/16 00:12:45;;;;;;;32.75;22.90;;;;;;;31.76;38.58;100631.44;5058023;28;20032;-79
2022/08/16 00:15:18;;;;;;;27.33;21.63;;;;;;;31.68;38.75;100640.31;5080630;28;20520;-78
2022/08/16 00:17:44;;;;;;;31.80;23.75;;;;;;;32.06;38.44;100638.19;5086654;28;20032;-78
2022/08/16 00:20:11;;;;;;;31.63;24.27;;;;;;;32.01;38.34;100639.69;5065735;28;20021;-78
2022/08/16 00:22:38;;;;;;;31.83;23.25;;;;;;;31.38;39.87;100644.28;5064956;28;20411;-78
2022/08/16 00:25:06;;;;;;;31.50;24.98;;;;;;;31.76;38.53;100644.94;5058145;28;20021;-78
2022/08/16 00:27:32;;;;;;;34.75;25.13;;;;;;;31.20;40.21;100647.88;5067291;28;20028;-78
2022/08/16 00:29:58;;;;;;;30.63;24.80;;;;;;;31.28;40.12;100645.25;5061542;28;20502;-78
2022/08/16 00:32:23;;;;;;;32.70;24.42;;;;;;;30.71;41.16;100650.03;5083504;28;20027;-78
2022/08/16 00:34:48;;;;;;;35.05;25.35;;;;;;;30.73;41.57;100661.50;5081944;28;20059;-78
2022/08/16 00:37:15;;;;;;;32.13;24.35;;;;;;;31.53;39.26;100658.94;5056995;28;20024;-78
2022/08/16 00:39:40;;;;;;;28.17;23.23;;;;;;;31.71;39.22;100656.25;5059610;28;20024;-78
2022/08/16 00:42:06;;;;;;;33.38;24.35;;;;;;;31.68;39.17;100661.09;5058725;28;20055;-78
2022/08/16 00:44:33;;;;;;;29.70;24.35;;;;;;;31.29;39.97;100652.31;5091262;28;20095;-78
2022/08/16 00:47:07;;;;;;;29.90;24.52;;;;;;;31.43;39.79;100652.78;5077437;28;20050;-78
2022/08/16 00:49:33;;;;;;;34.55;25.25;;;;;;;31.32;40.19;100650.31;5085961;28;20021;-78
2022/08/16 00:51:58;;;;;;;31.35;24.77;;;;;;;31.29;39.97;100652.31;5089213;28;20024;-78
2022/08/16 00:54:26;;;;;;;34.53;24.33;;;;;;;31.39;39.91;100651.38;5069992;28;20060;-78
2022/08/16 00:56:52;;;;;;;30.77;24.63;;;;;;;31.37;40.03;100658.81;5055894;28;20391;-78
2022/08/16 00:59:21;;;;;;;35.40;25.05;;;;;;;31.44;39.53;100651.78;5057806;28;20032;-78
2022/08/16 01:01:46;;;;;;;30.80;24.70;;;;;;;31.30;40.09;100645.09;5082258;28;20035;-78
2022/08/16 01:04:16;;;;;;;34.03;25.60;;;;;;;31.72;39.11;100648.97;5082735;28;20024;-78
2022/08/16 01:06:42;;;;;;;31.80;25.02;;;;;;;31.54;39.63;100648.97;5059101;28;20489;-78
2022/08/16 01:09:07;;;;;;;31.75;23.58;;;;;;;31.48;39.78;100647.75;5060743;28;20488;-79
2022/08/16 01:11:36;;;;;;;33.10;24.70;;;;;;;31.44;39.94;100649.06;5083358;28;20016;-78
2022/08/16 01:14:22;;;;;;;30.88;23.65;;;;;;;31.27;40.34;100643.53;5061568;28;20029;-78
2022/08/16 01:16:50;;;;;;;35.80;24.83;;;;;;;31.43;40.07;100641.97;5062255;28;20055;-78
2022/08/16 01:19:50;;;;;;;33.20;25.15;;;;;;;31.39;40.38;100640.59;5063714;28;20040;-78
2022/08/16 01:22:56;;;;;;;30.50;23.85;;;;;;;31.36;39.86;100638.22;5037618;28;20040;-78
2022/08/16 01:25:30;;;;;;;34.38;24.77;;;;;;;31.36;40.38;100643.59;5086445;28;20059;-78
2022/08/16 01:27:59;;;;;;;29.88;23.17;;;;;;;31.68;39.73;100644.88;5061867;28;20107;-78
2022/08/16 01:30:33;;;;;;;31.08;25.13;;;;;;;31.97;38.85;100634.63;5073326;28;20032;-78
2022/08/16 01:33:02;;;;;;;28.77;23.27;;;;;;;31.75;39.31;100640.53;5077859;28;20443;-78
2022/08/16 01:35:28;;;;;;;32.85;25.25;;;;;;;31.56;39.93;100642.41;5063082;28;20023;-78
2022/08/16 01:37:55;;;;;;;34.88;25.95;;;;;;;30.98;40.74;100643.72;5060881;28;20036;-78
2022/08/16 01:40:26;;;;;;;30.50;24.60;;;;;;;31.02;40.66;100638.88;5051064;28;20052;-78
2022/08/16 01:42:52;;;;;;;35.47;25.27;;;;;;;31.13;40.45;100641.38;5045051;28;20056;-78
2022/08/16 01:45:18;;;;;;;36.67;25.65;;;;;;;30.76;41.05;100639.63;5050635;28;20056;-78
2022/08/16 01:47:45;;;;;;;37.05;26.38;;;;;;;31.22;39.91;100645.84;5063120;28;20519;-78
2022/08/16 01:50:11;;;;;;;34.70;24.65;;;;;;;30.85;40.49;100644.09;5053631;28;20040;-78
2022/08/16 01:52:37;;;;;;;32.72;25.98;;;;;;;30.54;41.79;100636.38;5037353;28;20033;-78
2022/08/16 01:55:04;;;;;;;33.90;25.95;;;;;;;31.10;40.60;100637.13;5045522;28;20028;-78
2022/08/16 01:57:29;;;;;;;34.50;26.10;;;;;;;30.92;40.50;100639.78;5053117;28;20024;-78
2022/08/16 01:59:55;;;;;;;30.80;24.40;;;;;;;31.09;40.37;100639.97;5035675;28;20025;-79
2022/08/16 02:02:23;;;;;;;34.13;26.60;;;;;;;31.03;40.59;100635.22;5045051;28;20028;-79
2022/08/16 02:04:49;;;;;;;35.08;26.52;;;;;;;30.57;41.56;100635.19;5049389;28;20072;-78
2022/08/16 02:07:17;;;;;;;32.08;25.48;;;;;;;30.65;41.27;100631.75;5044535;28;20036;-79
2022/08/16 02:09:44;;;;;;;33.00;26.05;;;;;;;31.00;40.59;100627.41;5040623;28;20036;-79
2022/08/16 02:12:10;;;;;;;35.70;24.38;;;;;;;30.71;40.61;100632.00;5041039;28;20021;-78
2022/08/16 02:14:36;;;;;;;33.65;25.73;;;;;;;30.94;40.11;100626.13;5047641;28;20058;-78
2022/08/16 02:17:05;;;;;;;31.00;23.92;;;;;;;30.98;40.52;100634.78;5047149;28;20039;-78
2022/08/16 02:19:33;;;;;;;31.17;23.65;;;;;;;30.82;40.62;100644.41;5057015;28;20047;-78
2022/08/16 02:22:01;;;;;;;32.58;23.73;;;;;;;30.93;39.89;100630.69;5064107;28;20060;-79
2022/08/16 02:24:27;;;;;;;33.75;23.63;;;;;;;30.98;40.00;100642.88;5038105;28;20043;-78
2022/08/16 02:26:52;;;;;;;35.00;24.95;;;;;;;30.69;40.71;100643.94;5065807;28;20032;-78
2022/08/16 02:29:19;;;;;;;34.30;23.77;;;;;;;30.79;40.57;100640.19;5039726;28;20396;-79
2022/08/16 02:31:46;;;;;;;31.45;24.20;;;;;;;30.95;40.46;100644.91;5060153;28;20111;-78
2022/08/16 02:34:12;;;;;;;30.95;22.88;;;;;;;30.56;40.96;100639.75;5043076;28;20035;-79
2022/08/16 02:36:38;;;;;;;30.15;22.83;;;;;;;31.13;40.09;100636.84;5048192;28;20059;-79
2022/08/16 02:39:05;;;;;;;34.60;26.55;;;;;;;29.52;43.22;100640.59;5035275;28;20028;-78
2022/08/16 02:41:31;;;;;;;32.78;24.40;;;;;;;30.04;42.22;100629.44;5061123;28;20044;-78
2022/08/16 02:43:58;;;;;;;36.05;24.92;;;;;;;29.96;42.34;100632.03;5064234;28;20032;-77
2022/08/16 02:46:24;;;;;;;32.78;24.80;;;;;;;30.34;41.73;100629.34;5076155;28;20028;-79
2022/08/16 02:48:50;;;;;;;31.55;24.17;;;;;;;30.73;40.62;100634.53;5055311;28;20452;-78
2022/08/16 02:51:15;;;;;;;31.88;25.30;;;;;;;29.81;42.51;100634.31;5058524;28;20123;-78
2022/08/16 02:53:43;;;;;;;35.85;25.25;;;;;;;30.37;41.07;100634.44;5059176;28;20383;-79
2022/08/16 02:56:10;;;;;;;36.63;26.02;;;;;;;30.46;41.48;100628.19;5078131;28;20079;-78
2022/08/16 02:58:35;;;;;;;33.53;26.52;;;;;;;30.51;41.28;100625.84;5053862;28;20028;-78
2022/08/16 03:01:01;;;;;;;34.78;25.60;;;;;;;30.21;41.27;100635.06;5060065;28;20435;-79
2022/08/16 03:03:27;;;;;;;35.45;26.90;;;;;;;30.09;42.04;100639.81;5062814;28;20035;-78
2022/08/16 03:05:53;;;;;;;34.65;26.60;;;;;;;29.99;42.27;100636.28;5069666;28;20024;-78
2022/08/16 03:08:19;;;;;;;40.30;27.73;;;;;;;29.71;42.68;100634.34;5054993;28;20028;-78
2022/08/16 03:10:45;;;;;;;38.88;26.70;;;;;;;29.94;41.76;100634.88;5084319;28;20032;-77
2022/08/16 03:13:11;;;;;;;36.97;26.95;;;;;;;30.32;41.27;100620.53;5054265;28;20074;-78
2022/08/16 03:15:36;;;;;;;36.17;27.38;;;;;;;30.35;40.92;100628.31;5061933;28;20042;-78
2022/08/16 03:18:02;;;;;;;38.22;27.38;;;;;;;30.26;41.41;100617.44;5053772;28;21090;-78
2022/08/16 03:20:27;;;;;;;38.00;27.08;;;;;;;30.07;41.71;100628.31;5064226;28;20114;-78
2022/08/16 03:22:53;;;;;;;38.35;28.20;;;;;;;29.60;42.74;100624.56;5058930;28;20475;-78
2022/08/16 03:25:18;;;;;;;39.85;28.85;;;;;;;28.06;46.44;100636.59;5061555;28;20023;-78
2022/08/16 03:27:44;;;;;;;40.45;30.58;;;;;;;28.38;46.32;100629.38;5052666;28;20035;-78
2022/08/16 03:30:21;;;;;;;36.13;27.40;;;;;;;28.93;44.98;100616.38;5071789;28;20035;-78
2022/08/16 03:32:48;;;;;;;40.85;28.83;;;;;;;28.55;45.21;100626.03;5057208;28;20059;-78
2022/08/16 03:35:15;;;;;;;41.95;29.48;;;;;;;29.07;44.00;100625.00;5079631;28;20020;-78
2022/08/16 03:37:43;;;;;;;40.60;29.67;;;;;;;28.93;44.32;100624.44;5087643;28;20035;-78
2022/08/16 03:40:10;;;;;;;43.50;30.77;;;;;;;28.84;45.14;100630.66;5050034;28;20049;-78
2022/08/16 03:42:35;;;;;;;41.60;31.30;;;;;;;28.74;45.07;100621.72;5061860;28;20124;-77
2022/08/16 03:45:00;;;;;;;38.53;29.92;;;;;;;28.79;44.92;100627.53;5043313;28;20107;-78
2022/08/16 03:47:28;;;;;;;46.22;29.75;;;;;;;28.86;45.15;100631.34;5051939;28;20059;-78
2022/08/16 03:49:54;;;;;;;45.20;29.30;;;;;;;28.58;45.27;100630.31;5049373;28;20082;-78
2022/08/16 03:52:22;;;;;;;46.95;31.23;;;;;;;29.12;44.30;100633.50;5068321;28;20017;-77
2022/08/16 03:54:48;;;;;;;44.15;30.77;;;;;;;29.21;44.38;100629.97;5052768;28;20079;-78
2022/08/16 03:57:13;;;;;;;42.70;32.42;;;;;;;27.80;47.90;100641.50;5068756;28;20025;-77
2022/08/16 03:59:39;;;;;;;40.75;30.65;;;;;;;29.43;43.86;100628.03;5039862;28;20021;-78
2022/08/16 04:02:05;;;;;;;48.15;32.17;;;;;;;29.45;43.97;100628.72;5065570;28;20060;-78
2022/08/16 04:04:31;;;;;;;44.63;31.40;;;;;;;28.82;44.91;100635.31;5049253;28;20067;-78
2022/08/16 04:06:57;;;;;;;47.17;31.48;;;;;;;29.16;44.21;100644.84;5037375;28;20055;-77
2022/08/16 04:09:22;;;;;;;51.13;34.28;;;;;;;28.34;46.30;100649.44;5054314;28;20021;-77
2022/08/16 04:11:47;;;;;;;49.75;32.78;;;;;;;28.72;45.60;100653.28;5065158;28;20480;-78
2022/08/16 04:14:13;;;;;;;49.25;33.08;;;;;;;27.98;47.45;100660.56;5043943;28;20020;-78
2022/08/16 04:16:38;;;;;;;49.35;31.83;;;;;;;28.44;46.46;100661.94;5037050;28;20028;-78
2022/08/16 04:19:04;;;;;;;47.88;33.33;;;;;;;29.05;44.18;100661.97;5048383;28;20033;-78
2022/08/16 04:21:34;;;;;;;47.65;33.35;;;;;;;28.75;45.44;100671.81;5035699;28;20498;-78
2022/08/16 04:24:01;;;;;;;40.95;31.33;;;;;;;29.30;44.20;100665.13;5046824;28;20052;-78
2022/08/16 04:26:26;;;;;;;49.00;32.53;;;;;;;29.62;43.61;100667.50;5039386;28;20060;-78
2022/08/16 04:28:52;;;;;;;49.00;34.92;;;;;;;29.40;43.90;100668.66;5044041;28;20055;-77
2022/08/16 04:31:18;;;;;;;51.15;34.58;;;;;;;29.67;43.36;100670.63;5042963;28;20017;-79
2022/08/16 04:33:43;;;;;;;44.20;33.17;;;;;;;29.45;43.84;100669.09;5056523;28;20025;-79
2022/08/16 04:36:09;;;;;;;50.38;33.88;;;;;;;29.86;42.56;100667.09;5067703;28;20799;-78
2022/08/16 04:38:35;;;;;;;48.47;34.17;;;;;;;29.56;43.13;100666.25;5051026;28;20384;-78
2022/08/16 04:41:00;;;;;;;46.72;33.50;;;;;;;29.12;44.13;100665.78;5041071;28;20048;-78
2022/08/16 04:43:26;;;;;;;45.75;32.65;;;;;;;28.87;44.67;100673.41;5051532;28;20031;-78
2022/08/16 04:45:51;;;;;;;46.15;33.17;;;;;;;29.09;44.35;100676.84;5040471;28;20815;-79
2022/08/16 04:48:16;;;;;;;47.22;32.25;;;;;;;28.63;44.79;100681.81;5052789;28;20079;-78
2022/08/16 04:50:43;;;;;;;47.38;34.05;;;;;;;28.56;45.91;100676.13;5049072;28;20116;-78
2022/08/16 04:53:08;;;;;;;48.33;34.03;;;;;;;28.42;45.76;100681.88;5050855;28;20028;-78
2022/08/16 04:55:34;;;;;;;49.22;33.88;;;;;;;28.85;44.43;100678.09;5054068;28;20029;-78
2022/08/16 04:58:00;;;;;;;44.60;33.15;;;;;;;28.83;44.85;100679.22;5055564;28;20404;-76
2022/08/16 05:00:33;;;;;;;44.97;31.58;;;;;;;29.29;43.27;100677.72;5053027;28;20165;-78
2022/08/16 05:03:08;;;;;;;43.80;31.88;;;;;;;28.78;44.53;100684.97;5054537;28;20476;-78
2022/08/16 05:05:35;;;;;;;43.90;32.00;;;;;;;29.09;43.99;100682.22;5058637;28;20021;-78
2022/08/16 05:08:01;;;;;;;45.83;32.67;;;;;;;29.42;43.68;100682.84;5055666;28;20036;-78
2022/08/16 05:10:28;;;;;;;44.83;33.58;;;;;;;29.12;43.86;100681.94;5065097;28;20077;-79
2022/08/16 05:12:53;;;;;;;44.20;32.63;;;;;;;28.79;44.67;100685.84;5051055;28;20434;-78
2022/08/16 05:15:19;;;;;;;43.60;31.77;;;;;;;28.64;45.05;100688.91;5056026;28;20050;-78
2022/08/16 05:17:44;;;;;;;43.47;32.90;;;;;;;28.98;43.92;100690.44;5054893;28;20028;-78
2022/08/16 05:20:10;;;;;;;45.72;30.90;;;;;;;28.46;45.33;100680.63;5046635;28;20114;-78
2022/08/16 05:22:37;;;;;;;42.42;30.52;;;;;;;29.10;43.87;100678.56;5054644;28;20507;-78
2022/08/16 05:25:08;;;;;;;46.45;31.85;;;;;;;29.17;43.14;100677.00;5052888;28;20108;-78
2022/08/16 05:27:34;;;;;;;47.15;30.50;;;;;;;28.90;44.37;100688.41;5048753;28;20119;-78
2022/08/16 05:30:00;;;;;;;41.78;30.33;;;;;;;29.53;42.88;100690.75;5054596;28;20032;-78
2022/08/16 05:32:25;;;;;;;43.60;29.83;;;;;;;28.59;44.50;100688.44;5053124;28;20435;-78
2022/08/16 05:34:50;;;;;;;42.53;29.20;;;;;;;28.75;44.51;100696.03;5040757;28;20064;-77
2022/08/16 05:37:16;;;;;;;41.45;30.52;;;;;;;28.63;44.76;100697.09;5047126;28;20029;-78
2022/08/16 05:39:41;;;;;;;41.15;29.33;;;;;;;29.41;43.12;100697.28;5044298;28;20021;-78
2022/08/16 05:42:06;;;;;;;45.33;30.92;;;;;;;28.78;44.58;100706.50;5069923;28;20102;-78
2022/08/16 05:44:32;;;;;;;42.55;31.38;;;;;;;28.26;46.15;100707.41;5038059;28;20020;-78
2022/08/16 05:46:59;;;;;;;45.20;30.67;;;;;;;28.29;46.08;100716.16;5045273;28;20142;-77
2022/08/16 05:49:27;;;;;;;39.92;31.15;;;;;;;28.11;46.88;100722.19;5060142;28;20021;-77
2022/08/16 05:51:54;;;;;;;46.90;31.83;;;;;;;29.28;44.26;100709.19;5061081;28;20070;-77
2022/08/16 05:54:20;;;;;;;39.75;30.25;;;;;;;29.99;42.24;100706.31;5037663;28;20120;-78
2022/08/16 05:56:45;;;;;;;41.67;31.17;;;;;;;29.02;44.52;100705.31;5036695;28;20437;-78
2022/08/16 05:59:13;;;;;;;40.15;29.83;;;;;;;29.42;43.56;100704.38;5062785;28;20024;-78
2022/08/16 06:01:40;;;;;;;41.65;30.60;;;;;;;29.56;42.86;100709.31;5062795;28;20476;-77
2022/08/16 06:04:07;;;;;;;46.10;30.63;;;;;;;29.51;43.71;100711.59;5043518;28;20028;-78
2022/08/16 06:06:33;;;;;;;40.08;30.55;;;;;;;28.92;44.87;100722.25;5040384;28;20020;-78
2022/08/16 06:08:59;;;;;;;45.20;31.33;;;;;;;29.72;43.16;100716.84;5069733;28;20028;-78
2022/08/16 06:11:24;;;;;;;40.50;31.00;;;;;;;29.23;43.76;100724.84;5062395;28;20064;-78
2022/08/16 06:13:49;;;;;;;43.60;31.27;;;;;;;29.98;42.88;100731.56;5042133;28;20033;-79
2022/08/16 06:16:15;;;;;;;42.10;29.80;;;;;;;30.53;42.10;100734.44;5067276;28;20518;-78
2022/08/16 06:18:43;;;;;;;44.13;29.85;;;;;;;30.12;42.03;100728.44;5061747;28;20032;-78
2022/08/16 06:21:09;;;;;;;42.33;29.23;;;;;;;30.75;41.06;100727.78;5041176;28;20029;-78
2022/08/16 06:23:35;;;;;;;41.60;29.67;;;;;;;29.23;44.80;100737.47;5043271;28;20021;-78
2022/08/16 06:26:00;;;;;;;44.95;31.13;;;;;;;29.03;44.91;100736.56;5045173;28;20474;-78
2022/08/16 06:28:25;;;;;;;44.08;30.58;;;;;;;28.60;45.93;100736.72;5055288;28;20163;-77
2022/08/16 06:30:51;;;;;;;40.35;29.83;;;;;;;29.26;44.81;100738.09;5046456;28;20071;-78
2022/08/16 06:33:18;;;;;;;44.55;30.73;;;;;;;28.49;46.36;100744.00;5067507;28;20071;-78
2022/08/16 06:35:43;;;;;;;44.45;30.48;;;;;;;28.18;48.37;100742.16;5052042;28;20055;-78
2022/08/16 06:38:09;;;;;;;50.30;31.38;;;;;;;28.50;47.55;100751.94;5033805;28;20472;-77
2022/08/16 06:40:34;;;;;;;38.92;29.52;;;;;;;29.25;45.60;100743.59;5044615;28;20073;-76
2022/08/16 06:43:00;;;;;;;41.85;30.77;;;;;;;28.49;46.75;100735.94;5083042;28;20407;-77
2022/08/16 06:45:25;;;;;;;42.85;29.50;;;;;;;29.52;45.35;100726.75;5072428;28;21264;-77
2022/08/16 06:47:51;;;;;;;44.53;30.90;;;;;;;29.53;44.10;100728.44;5071137;28;20038;-78
2022/08/16 06:50:18;;;;;;;38.97;28.48;;;;;;;30.62;41.93;100728.16;5062590;28;20036;-78
2022/08/16 06:52:44;;;;;;;43.92;30.85;;;;;;;30.20;42.46;100725.84;5072238;28;20024;-78
2022/08/16 06:55:11;;;;;;;45.17;29.45;;;;;;;30.58;42.00;100729.44;5054925;28;20024;-77
2022/08/16 06:57:37;;;;;;;46.72;30.65;;;;;;;30.35;43.40;100736.16;5069822;28;20381;-78
2022/08/16 07:00:11;;;;;;;39.60;28.88;;;;;;;30.50;42.56;100732.03;5074581;28;20077;-78
2022/08/16 07:02:38;;;;;;;41.83;29.80;;;;;;;31.89;40.28;100734.53;5067927;28;20492;-78
2022/08/16 07:05:05;;;;;;;41.00;30.20;;;;;;;30.18;43.34;100737.78;5054178;28;20029;-77
2022/08/16 07:07:31;;;;;;;43.47;30.20;;;;;;;29.34;44.58;100740.06;5077432;28;20071;-78
2022/08/16 07:09:57;;;;;;;46.25;30.15;;;;;;;30.50;42.79;100740.13;5054432;28;20051;-78
2022/08/16 07:12:22;;;;;;;44.78;30.13;;;;;;;31.94;40.88;100737.63;5054865;28;20472;-78
2022/08/16 07:14:48;;;;;;;41.88;28.95;;;;;;;32.47;40.16;100737.63;5056908;28;20048;-78
2022/08/16 07:17:14;;;;;;;43.08;27.60;;;;;;;32.65;38.66;100746.50;5072906;28;20048;-77
2022/08/16 07:19:40;;;;;;;38.20;27.02;;;;;;;34.67;35.00;100748.03;5053616;28;20098;-78
2022/08/16 07:22:05;;;;;;;34.55;25.88;;;;;;;33.69;36.85;100759.84;5054241;28;20032;-77
2022/08/16 07:24:31;;;;;;;31.50;24.95;;;;;;;34.65;34.44;100758.22;5059614;28;20036;-78
2022/08/16 07:27:00;;;;;;;33.75;24.95;;;;;;;35.65;33.67;100756.69;5053027;28;20032;-77
2022/08/16 07:29:26;;;;;;;33.90;23.58;;;;;;;34.66;33.99;100762.63;5072327;28;20029;-77
2022/08/16 07:31:51;;;;;;;33.10;23.25;;;;;;;36.25;31.61;100762.25;5054447;28;20027;-76
2022/08/16 07:34:17;;;;;;;31.70;23.10;;;;;;;36.41;31.93;100765.84;5057695;28;20414;-76
2022/08/16 07:36:44;;;;;;;34.70;22.73;;;;;;;36.54;31.81;100771.47;5087104;28;20398;-77
2022/08/16 07:39:10;;;;;;;32.25;23.27;;;;;;;36.07;31.57;100772.66;5057865;28;20134;-76
2022/08/16 07:41:35;;;;;;;29.85;21.67;;;;;;;35.69;32.02;100778.03;5050291;28;20397;-76
2022/08/16 07:44:01;;;;;;;31.42;23.10;;;;;;;36.80;30.73;100791.97;5051810;28;20029;-77
2022/08/16 07:46:26;;;;;;;28.35;22.42;;;;;;;36.32;31.31;100793.13;5037670;28;20153;-77
2022/08/16 07:48:52;;;;;;;35.72;23.48;;;;;;;36.74;32.54;100796.25;5051023;28;20052;-77
2022/08/16 07:51:17;;;;;;;29.02;23.42;;;;;;;37.17;30.93;100795.56;5032549;28;20485;-77
2022/08/16 07:53:44;;;;;;;35.83;23.20;;;;;;;37.31;30.35;100799.31;5033107;28;20029;-77
2022/08/16 07:56:09;;;;;;;31.23;23.20;;;;;;;37.18;30.61;100799.97;5044012;28;20373;-77
2022/08/16 07:58:35;;;;;;;35.08;23.70;;;;;;;36.22;31.30;100800.72;5057656;28;20021;-76
2022/08/16 08:01:04;;;;;;;33.85;24.55;;;;;;;38.00;29.58;100787.84;5035475;28;20033;-77
2022/08/16 08:03:30;;;;;;;35.88;25.13;;;;;;;35.73;32.93;100801.13;5049187;28;20083;-76
2022/08/16 08:05:55;;;;;;;31.52;23.38;;;;;;;36.49;31.38;100803.84;5040718;28;20028;-77
2022/08/16 08:08:20;;;;;;;31.33;23.95;;;;;;;38.25;29.01;100789.28;5053310;28;20024;-77
2022/08/16 08:10:46;;;;;;;32.35;24.38;;;;;;;37.01;31.06;100794.75;5048774;28;20028;-76
2022/08/16 08:13:11;;;;;;;29.90;23.40;;;;;;;39.80;28.70;100788.88;5044184;28;20029;-77
2022/08/16 08:15:37;;;;;;;34.42;23.40;;;;;;;39.57;27.45;100791.97;5066110;28;20521;-77
2022/08/16 08:18:02;;;;;;;30.92;23.70;;;;;;;38.78;28.11;100799.69;5032723;28;20029;-77
2022/08/16 08:20:28;;;;;;;30.17;24.30;;;;;;;38.86;28.56;100788.59;5034022;28;20136;-77
2022/08/16 08:22:57;;;;;;;32.25;22.00;;;;;;;40.73;26.09;100800.78;5048098;28;20756;-77
2022/08/16 08:25:23;;;;;;;29.70;22.60;;;;;;;39.16;27.53;100797.34;5048490;28;20091;-77
2022/08/16 08:27:48;;;;;;;28.33;22.08;;;;;;;40.98;26.02;100801.72;5043202;28;20052;-78
2022/08/16 08:30:13;;;;;;;30.92;22.92;;;;;;;40.97;26.23;100801.94;5046766;28;20496;-78
2022/08/16 08:32:40;;;;;;;28.10;21.33;;;;;;;41.14;26.13;100805.06;5047945;28;20035;-78
2022/08/16 08:35:06;;;;;;;29.55;22.70;;;;;;;40.24;26.50;100806.53;5042202;28;20037;-77
2022/08/16 08:37:34;;;;;;;28.75;24.25;;;;;;;40.21;26.03;100815.19;5046394;28;20044;-77
2022/08/16 08:40:00;;;;;;;27.52;23.08;;;;;;;37.57;29.53;100825.16;5041018;28;20029;-76
2022/08/16 08:42:25;;;;;;;27.90;23.17;;;;;;;39.86;27.01;100829.06;5048927;28;20036;-78
2022/08/16 08:44:50;;;;;;;28.20;22.27;;;;;;;40.28;27.05;100821.47;5045945;28;20464;-78
2022/08/16 08:47:16;;;;;;;31.42;23.35;;;;;;;39.85;27.40;100824.63;5039037;28;20029;-77
2022/08/16 08:49:42;;;;;;;28.20;22.98;;;;;;;38.58;29.32;100827.72;5044790;28;20029;-78
2022/08/16 08:52:07;;;;;;;32.08;23.20;;;;;;;38.39;29.41;100828.41;5051405;28;20036;-77
2022/08/16 08:54:33;;;;;;;30.40;23.13;;;;;;;38.21;29.16;100826.16;5047145;28;20392;-77
2022/08/16 08:56:59;;;;;;;28.73;23.40;;;;;;;37.76;30.11;100834.59;5047145;28;20028;-76
2022/08/16 08:59:24;;;;;;;30.08;23.23;;;;;;;37.30;30.65;100833.88;5049741;28;20025;-77
2022/08/16 09:01:50;;;;;;;34.80;24.75;;;;;;;35.83;32.56;100835.22;5054562;28;20579;-77
2022/08/16 09:04:16;;;;;;;33.65;24.08;;;;;;;38.28;29.25;100840.72;5036084;28;20025;-77
2022/08/16 09:06:42;;;;;;;30.23;23.45;;;;;;;39.57;28.24;100847.50;5062422;28;20020;-78
2022/08/16 09:09:08;;;;;;;31.77;25.70;;;;;;;39.18;28.69;100846.34;5047773;28;20503;-77
2022/08/16 09:11:35;;;;;;;31.35;25.20;;;;;;;40.79;26.53;100835.50;5062234;28;20440;-77
2022/08/16 09:14:01;;;;;;;37.75;26.33;;;;;;;40.82;25.42;100843.28;5044814;28;20476;-77
2022/08/16 09:16:27;;;;;;;31.05;24.70;;;;;;;41.43;25.07;100849.41;5048569;28;20028;-78
2022/08/16 09:18:53;;;;;;;33.78;24.85;;;;;;;40.06;27.24;100847.41;5060065;28;20177;-77
2022/08/16 09:21:19;;;;;;;30.88;25.95;;;;;;;40.03;26.57;100852.19;5035546;28;20502;-78
2022/08/16 09:23:45;;;;;;;34.47;26.70;;;;;;;37.97;29.34;100853.66;5050587;28;20119;-77
2022/08/16 09:26:14;;;;;;;36.47;27.15;;;;;;;38.30;29.26;100858.59;5055955;28;20147;-76
2022/08/16 09:28:41;;;;;;;30.60;25.10;;;;;;;39.19;28.39;100858.97;5056196;28;20048;-76
2022/08/16 09:31:06;;;;;;;37.95;27.42;;;;;;;36.41;31.12;100859.22;5056268;28;20028;-75
2022/08/16 09:33:32;;;;;;;32.30;25.20;;;;;;;38.67;28.00;100861.97;5071095;28;20532;-77
2022/08/16 09:35:58;;;;;;;34.75;26.08;;;;;;;37.63;29.95;100863.41;5037346;28;20033;-77
2022/08/16 09:38:24;;;;;;;28.20;24.38;;;;;;;38.52;29.22;100856.63;5036152;28;20379;-77
2022/08/16 09:40:50;;;;;;;29.08;24.10;;;;;;;40.56;26.69;100866.97;5043845;28;20055;-77
2022/08/16 09:43:18;;;;;;;29.20;23.65;;;;;;;37.76;29.94;100870.06;5082624;28;20471;-76
2022/08/16 09:45:45;;;;;;;31.65;22.58;;;;;;;37.42;30.14;100872.38;5074659;28;20036;-77
2022/08/16 09:48:13;;;;;;;30.60;24.92;;;;;;;36.23;31.80;100873.13;5073755;28;20028;-77
2022/08/16 09:50:40;;;;;;;29.00;22.27;;;;;;;39.40;27.75;100868.06;5073828;28;20070;-77
2022/08/16 09:53:19;;;;;;;24.40;19.25;;;;;;;40.13;27.50;100867.38;5064283;28;20511;-77
2022/08/16 09:55:48;;;;;;;31.55;20.65;;;;;;;39.21;27.61;100865.03;5056194;28;20347;-77
2022/08/16 09:58:13;;;;;;;24.65;20.33;;;;;;;38.55;28.27;100866.31;5056748;28;20103;-77
2022/08/16 10:00:39;;;;;;;27.40;20.42;;;;;;;36.85;30.14;100865.75;5056827;28;20120;-76
2022/08/16 10:03:04;;;;;;;26.60;20.85;;;;;;;38.84;28.25;100858.97;5056117;28;20039;-77
2022/08/16 10:05:36;;;;;;;21.27;18.58;;;;;;;38.65;28.17;100858.63;5072694;28;20031;-77
2022/08/16 10:08:03;;;;;;;22.15;16.65;;;;;;;39.73;26.15;100861.88;5055201;28;20112;-76
2022/08/16 10:10:29;;;;;;;22.50;18.67;;;;;;;38.79;27.66;100856.84;5055717;28;20044;-77
2022/08/16 10:13:13;;;;;;;22.80;18.23;;;;;;;37.60;29.56;100874.66;5073118;28;20048;-76
2022/08/16 10:15:41;;;;;;;21.38;16.73;;;;;;;38.78;27.61;100870.69;5055560;28;20032;-77
2022/08/16 10:18:09;;;;;;;25.73;17.23;;;;;;;37.53;29.22;100872.91;5057624;28;20028;-77
2022/08/16 10:20:46;;;;;;;25.98;18.95;;;;;;;35.84;31.74;100874.09;5074829;28;20042;-76
2022/08/16 10:23:14;;;;;;;24.80;19.30;;;;;;;35.66;33.39;100871.66;5089495;28;20023;-76
2022/08/16 10:25:42;;;;;;;30.70;18.63;;;;;;;37.53;30.49;100865.56;5054230;28;20369;-77
2022/08/16 10:28:09;;;;;;;25.75;18.42;;;;;;;38.50;28.82;100869.66;5074710;28;20029;-77
2022/08/16 10:30:36;;;;;;;21.20;16.25;;;;;;;38.40;27.94;100869.16;5054627;28;20526;-77
2022/08/16 10:33:02;;;;;;;22.60;17.38;;;;;;;37.16;30.64;100879.13;5054862;28;20059;-77
2022/08/16 10:35:27;;;;;;;26.48;17.52;;;;;;;37.63;29.55;100874.31;5075056;28;20024;-76
2022/08/16 10:37:53;;;;;;;21.65;15.95;;;;;;;38.82;27.86;100872.00;5059870;28;20034;-77
2022/08/16 10:40:20;;;;;;;19.90;15.07;;;;;;;37.80;29.21;100879.53;5053795;28;20554;-77
2022/08/16 10:42:45;;;;;;;24.77;17.88;;;;;;;37.72;28.84;100876.91;5086826;28;20047;-77
2022/08/16 10:45:11;;;;;;;24.25;16.75;;;;;;;37.32;28.88;100880.84;5054309;28;20751;-77
2022/08/16 10:47:37;;;;;;;21.45;16.73;;;;;;;37.25;29.67;100881.75;5054332;28;20500;-76
2022/08/16 10:50:05;;;;;;;17.58;15.80;;;;;;;35.61;31.85;100888.50;5053846;28;20028;-76
2022/08/16 10:52:31;;;;;;;19.00;15.38;;;;;;;37.35;29.25;100887.81;5054175;28;20071;-76
2022/08/16 10:54:58;;;;;;;18.55;16.27;;;;;;;35.80;31.55;100887.16;5058524;28;20038;-75
2022/08/16 10:57:24;;;;;;;19.58;16.17;;;;;;;35.93;30.64;100889.34;5056498;28;20024;-75
2022/08/16 10:59:51;;;;;;;19.65;15.20;;;;;;;36.65;30.19;100882.59;5054942;28;20024;-76
2022/08/16 11:02:17;;;;;;;21.17;14.43;;;;;;;36.49;30.35;100888.19;5065533;28;20119;-77
2022/08/16 11:04:42;;;;;;;21.52;14.27;;;;;;;36.81;30.08;100891.69;5083226;28;20024;-76
2022/08/16 11:07:09;;;;;;;21.88;17.52;;;;;;;37.15;29.79;100892.94;5054516;28;20058;-78